Latest Weather Observations for Cooma Airport

IDN60801

Issued at 3:02 am EST Friday 4 September 2015 (issued every 30 minutes, with the page automatically refreshed every 10 minutes)

About weather observations | Map of weather stations | Latest weather observations for NSW | Other Formats
Station Details ID: 070217 Name: COOMA AIRPORT AWS Lat: -36.29 Lon: 148.97 Height: 930.0 m
Data from the previous 72 hours. | See also: Recent months at Cooma Airport
Date/Time
EST
Temp
°C
App
Temp
°C
Dew
Point
Rel
Hum
%
Delta-T
°C
Wind Press
QNH
hPa
Press
MSL
hPa
Rain
since 9 am
mm
Dir
 
Spd
km/h
Gust
km/h
Spd
kts
Gust
kts
04/03:00am 5.0 1.8 4.9 99 0.0 WSW 11 11 6 6 1019.7 - -
04/02:30am 5.1 2.3 5.0 99 0.0 SSW 9 15 5 8 1019.6 1019.6 2.6
04/02:00am 5.2 1.6 5.1 99 0.0 S 13 15 7 8 1019.5 1019.5 2.6
04/01:49am 5.3 1.7 5.2 99 0.0 SSW 13 17 7 9 1019.4 1019.4 2.6
04/01:30am 5.4 1.5 5.3 99 0.0 SSW 15 19 8 10 1019.6 1019.6 2.6
04/01:20am 5.5 1.2 5.4 99 0.0 SSW 17 22 9 12 1019.5 1019.5 2.6
04/01:00am 5.7 1.8 5.4 98 0.1 SSW 15 19 8 10 1019.4 1019.4 2.6
04/12:30am 5.6 3.3 5.5 99 0.0 WSW 7 9 4 5 1019.7 1019.7 2.6
04/12:00am 5.5 4.5 5.4 99 0.0 CALM 0 0 0 0 1019.3 1019.3 2.6
 
Date/Time
EST
Temp
°C
App
Temp
°C
Dew
Point
Rel
Hum
%
Delta-T
°C
Wind Press
QNH
hPa
Press
MSL
hPa
Rain
since 9 am
mm
Dir
 
Spd
km/h
Gust
km/h
Spd
kts
Gust
kts
03/11:30pm 5.6 3.4 5.5 99 0.0 S 6 9 3 5 1019.3 1019.3 2.6
03/11:25pm 5.5 3.3 5.2 98 0.1 SSW 6 9 3 5 1019.2 1019.2 2.6
03/11:17pm 5.6 2.8 5.3 98 0.1 SW 9 13 5 7 1019.2 1019.2 2.6
03/11:00pm 5.7 1.4 5.3 97 0.2 SW 17 20 9 11 1019.0 1019.0 2.6
03/10:30pm 5.6 1.3 5.3 98 0.1 SW 17 22 9 12 1018.6 1018.6 2.6
03/10:00pm 5.5 1.6 5.2 98 0.1 SW 15 20 8 11 1018.4 1018.4 2.6
03/09:30pm 5.3 0.9 4.7 96 0.3 SW 17 22 9 12 1017.9 1017.8 2.6
03/09:00pm 5.5 0.5 4.5 93 0.5 SW 20 28 11 15 1017.4 1017.4 2.6
03/08:55pm 5.5 0.5 4.5 93 0.5 SW 20 28 11 15 1017.3 1017.3 2.6
03/08:44pm 5.6 0.2 4.7 94 0.4 SW 22 32 12 17 1017.2 1017.2 2.6
03/08:30pm 5.7 0.0 5.0 95 0.3 SW 24 30 13 16 1017.2 1017.2 2.6
03/08:00pm 5.7 0.4 5.1 96 0.3 SW 22 32 12 17 1016.9 1016.8 2.6
03/07:30pm 5.6 -0.4 5.2 97 0.2 SW 26 35 14 19 1016.4 1016.4 2.6
03/07:22pm 5.6 -0.8 5.3 98 0.1 SW 28 35 15 19 1016.2 1016.2 2.6
03/07:00pm 5.4 -1.4 5.3 99 0.0 SW 30 35 16 19 1015.6 1015.5 2.6
03/06:30pm 5.3 -1.1 5.2 99 0.0 SW 28 37 15 20 1014.8 1014.7 2.6
03/06:23pm 5.2 -1.2 5.1 99 0.0 SW 28 35 15 19 1014.8 1014.7 2.6
03/06:00pm 5.1 -2.1 5.0 99 0.0 SW 32 41 17 22 1014.4 1014.3 2.6
03/05:30pm 5.2 -1.6 5.1 99 0.0 SW 30 39 16 21 1013.8 1013.7 2.2
03/05:23pm 5.3 -1.5 5.2 99 0.0 SW 30 37 16 20 1013.7 1013.6 2.2
03/05:05pm 5.3 -2.4 5.2 99 0.0 SW 35 44 19 24 1013.0 1012.9 2.0
03/05:00pm 5.3 -2.4 5.2 99 0.0 SW 35 48 19 26 1012.9 1012.8 2.0
03/04:30pm 6.0 -2.3 5.9 99 0.0 SW 39 48 21 26 1012.0 1011.8 1.6
03/04:00pm 6.9 -1.4 6.2 95 0.3 SW 39 52 21 28 1011.1 1010.9 1.4
03/03:30pm 7.8 1.9 7.5 98 0.1 SW 28 35 15 19 1010.6 1010.5 1.4
03/03:13pm 8.2 2.3 7.3 94 0.4 SW 28 35 15 19 1010.2 1010.0 1.4
03/03:00pm 8.0 3.3 7.6 97 0.2 SW 22 30 12 16 1010.0 1009.8 1.4
03/02:30pm 7.2 2.1 6.1 93 0.5 SSW 22 30 12 16 1009.8 1009.6 1.4
03/02:00pm 7.4 2.2 5.5 88 0.9 S 22 32 12 17 1009.2 1009.0 1.2
03/01:35pm 7.6 2.2 6.2 91 0.7 S 24 33 13 18 1008.9 1008.7 1.2
03/01:30pm 7.5 2.1 6.3 92 0.6 S 24 33 13 18 1008.8 1008.6 1.2
03/01:00pm 6.9 1.2 6.8 99 0.0 SSW 26 32 14 17 1008.4 1008.2 1.2
03/12:30pm 6.0 0.9 5.9 99 0.0 SW 22 32 12 17 1008.6 1008.3 1.2
03/12:00pm 5.3 -0.3 5.2 99 0.0 SW 24 30 13 16 1008.4 1008.2 1.2
03/11:30am 5.2 -0.1 5.1 99 0.0 SW 22 30 12 16 1008.3 1008.1 1.2
03/11:13am 5.2 -0.8 5.1 99 0.0 SW 26 33 14 18 1008.1 1007.9 1.2
03/11:00am 4.7 -1.4 4.6 99 0.0 SW 26 35 14 19 1008.2 1008.0 1.2
03/10:55am 4.6 -1.6 4.5 99 0.0 SW 26 35 14 19 1008.2 1008.0 1.2
03/10:30am 4.3 -2.3 4.2 99 0.0 SW 28 35 15 19 1008.0 1007.8 1.2
03/10:00am 4.1 -3.3 3.8 98 0.1 SW 32 44 17 24 1007.8 1007.6 1.2
03/09:30am 4.7 -1.1 4.6 99 0.0 SW 24 32 13 17 1007.7 1007.4 0.8
03/09:00am 4.8 0.4 4.7 99 0.0 WSW 17 24 9 13 1007.4 1007.1 14.4
03/08:31am 4.5 -0.5 4.4 99 0.0 SW 20 28 11 15 1006.6 1006.3 14.0
03/08:30am 4.5 -0.5 4.4 99 0.0 SW 20 28 11 15 1006.6 1006.3 14.0
03/08:00am 4.4 0.3 4.3 99 0.0 WSW 15 20 8 11 1006.1 1005.9 12.8
03/07:55am 4.4 0.3 4.3 99 0.0 WSW 15 19 8 10 1006.1 1005.9 12.6
03/07:30am 4.7 -1.1 4.6 99 0.0 SW 24 32 13 17 1005.3 1005.0 12.0
03/07:00am 4.9 -0.4 4.8 99 0.0 SW 22 30 12 16 1004.9 1004.6 11.6
03/06:30am 5.0 0.6 4.9 99 0.0 SW 17 22 9 12 1004.7 1004.4 10.2
03/06:14am 5.0 0.1 4.9 99 0.0 SSW 20 24 11 13 1004.6 1004.3 9.6
03/06:00am 5.1 0.7 5.0 99 0.0 SW 17 26 9 14 1004.4 1004.1 9.2
03/05:34am 5.4 1.9 5.3 99 0.0 SSW 13 19 7 10 1004.4 1004.1 8.6
03/05:30am 5.3 1.4 5.2 99 0.0 SSW 15 19 8 10 1004.4 1004.1 8.4
03/05:16am 5.3 1.4 5.2 99 0.0 SSW 15 20 8 11 1004.2 1003.9 8.4
03/05:00am 5.4 1.1 5.3 99 0.0 SSW 17 20 9 11 1004.1 1003.7 8.4
03/04:55am 5.4 1.5 5.3 99 0.0 SW 15 19 8 10 1004.1 1003.7 8.4
03/04:30am 5.4 1.9 5.3 99 0.0 SSW 13 17 7 9 1004.2 1003.9 8.2
03/04:19am 5.4 1.9 5.3 99 0.0 SW 13 15 7 8 1004.3 1004.0 7.8
03/04:00am 5.3 1.7 5.2 99 0.0 SW 13 15 7 8 1004.4 1004.1 7.8
03/03:30am 5.4 2.6 5.3 99 0.0 SW 9 11 5 6 1004.8 1004.5 7.8
03/03:00am 5.4 4.0 5.3 99 0.0 SSW 2 9 1 5 1005.1 1004.8 7.6
03/02:30am 5.5 2.8 5.4 99 0.0 E 9 11 5 6 1005.7 1005.4 7.0
03/02:12am 5.4 3.0 5.3 99 0.0 E 7 13 4 7 1006.0 1005.8 6.6
03/02:00am 5.4 3.0 5.3 99 0.0 ENE 7 9 4 5 1006.3 1006.0 6.2
03/01:48am 5.5 2.8 5.4 99 0.0 NE 9 11 5 6 1006.7 1006.4 5.2
03/01:30am 5.4 2.2 5.3 99 0.0 NNE 11 11 6 6 1007.1 1006.9 4.0
03/01:25am 5.5 2.8 5.4 99 0.0 NNE 9 11 5 6 1007.1 1006.9 3.8
03/01:00am 5.4 3.0 5.3 99 0.0 N 7 9 4 5 1007.6 1007.3 2.8
03/12:36am 5.7 4.3 5.3 97 0.2 NNE 2 7 1 4 1007.8 1007.6 1.4
03/12:30am 5.7 4.2 5.1 96 0.3 NNE 2 7 1 4 1007.9 1007.7 1.2
03/12:00am 5.8 3.3 4.9 94 0.4 NE 7 9 4 5 1008.3 1008.1 0.8
 
Date/Time
EST
Temp
°C
App
Temp
°C
Dew
Point
Rel
Hum
%
Delta-T
°C
Wind Press
QNH
hPa
Press
MSL
hPa
Rain
since 9 am
mm
Dir
 
Spd
km/h
Gust
km/h
Spd
kts
Gust
kts
02/11:30pm 6.0 4.0 4.2 88 0.8 NNE 4 11 2 6 1008.4 1008.2 0.4
02/11:00pm 6.1 3.4 2.9 80 1.4 NNE 6 11 3 6 1008.4 1008.2 0.0
02/10:30pm 6.7 3.8 2.4 74 1.9 NE 7 9 4 5 1008.8 1008.6 0.0
02/10:00pm 6.3 2.7 2.8 78 1.5 NNE 11 15 6 8 1008.9 1008.7 0.0
02/09:30pm 6.5 2.2 3.1 79 1.5 NNE 15 17 8 9 1009.0 1008.8 0.0
02/09:00pm 5.3 3.3 2.3 81 1.3 NE 2 7 1 4 1008.9 1008.7 0.0
02/08:30pm 5.9 3.1 2.2 77 1.6 NE 6 7 3 4 1009.4 1009.2 0.0
02/08:00pm 5.4 2.0 2.1 79 1.4 NE 9 13 5 7 1009.7 1009.5 0.0
02/07:30pm 6.6 4.5 1.9 72 2.0 N 2 9 1 5 1009.4 1009.2 0.0
02/07:00pm 7.1 3.8 2.2 71 2.1 ENE 9 13 5 7 1009.4 1009.2 0.0
02/06:30pm 8.0 5.0 2.0 66 2.6 NNE 7 9 4 5 1009.4 1009.2 0.0
02/06:00pm 8.1 3.3 2.4 67 2.5 NE 17 19 9 10 1009.3 1009.1 0.0
02/05:30pm 9.2 4.5 0.9 56 3.6 NNE 15 17 8 9 1009.2 1009.0 0.0
02/05:00pm 11.3 5.4 -2.1 39 5.5 NNE 19 20 10 11 1009.2 1009.0 0.0
02/04:30pm 14.0 7.0 -3.7 29 7.2 NNE 24 30 13 16 1009.2 1009.0 0.0
02/04:00pm 14.9 8.2 -3.9 27 7.7 NNE 22 30 12 16 1009.2 1009.0 0.0
02/03:30pm 15.6 10.5 -2.3 29 7.6 NE 15 22 8 12 1009.4 1009.2 0.0
02/03:00pm 15.5 9.8 -3.9 26 8.0 NE 17 22 9 12 1009.7 1009.5 0.0
02/02:30pm 15.4 8.9 -5.6 23 8.3 NE 20 24 11 13 1009.9 1009.7 0.0
02/02:00pm 15.7 9.7 -1.8 30 7.6 NE 20 28 11 15 1010.3 1010.1 0.0
02/01:30pm 15.0 8.5 -2.4 30 7.4 NE 22 28 12 15 1010.7 1010.6 0.0
02/01:00pm 14.9 9.3 1.4 40 6.2 NE 20 26 11 14 1011.3 1011.1 0.0
02/12:30pm 13.5 7.7 -0.2 39 6.0 NE 20 26 11 14 1012.0 1011.8 0.0
02/12:00pm 12.8 7.5 1.8 47 5.0 NE 19 24 10 13 1012.6 1012.5 0.0
02/11:30am 11.4 6.2 2.4 54 4.1 NE 19 24 10 13 1013.3 1013.1 0.0
02/11:00am 9.6 4.4 3.4 65 2.8 NE 20 26 11 14 1013.9 1013.8 0.0
02/10:30am 7.8 2.6 3.3 73 2.0 NE 20 24 11 13 1014.4 1014.3 0.0
02/10:00am 5.2 -0.2 2.2 81 1.3 NE 20 26 11 14 1014.8 1014.7 0.0
02/09:30am 4.0 -1.4 2.7 91 0.6 NE 20 24 11 13 1015.1 1015.0 0.0
02/09:26am 3.6 -1.8 2.6 93 0.4 NE 20 24 11 13 1015.0 1014.9 0.0
02/09:07am 2.5 -2.7 2.4 99 0.0 NE 19 24 10 13 1015.5 1015.4 0.0
02/09:00am 1.7 -3.8 1.6 99 0.0 NE 20 24 11 13 1015.5 1015.4 0.0
02/08:33am 0.7 -4.8 0.6 99 0.0 NE 19 22 10 12 1015.6 1015.5 0.0
02/08:30am 0.7 -4.8 0.6 99 0.0 NE 19 22 10 12 1015.6 1015.5 0.0
02/08:22am 0.0 -5.8 -0.1 99 0.0 NE 20 24 11 13 1015.6 1015.5 0.0
02/08:00am -0.6 -6.5 -0.7 99 0.0 NE 20 22 11 12 1015.6 1015.5 0.0
02/07:30am -1.0 -6.4 -1.1 99 0.0 NE 17 20 9 11 1015.5 1015.4 0.0
02/07:00am -1.7 -6.8 -1.8 99 0.0 NE 15 17 8 9 1015.3 1015.3 0.0
02/06:30am -2.5 -7.7 -2.6 99 -0.1 NNE 15 15 8 8 1015.1 1015.0 0.0
02/06:00am -3.5 -9.2 -3.6 99 -0.1 NNE 17 17 9 9 1015.1 1015.0 0.0
02/05:52am -3.5 -8.8 -3.6 99 -0.1 NNE 15 17 8 9 1015.1 1015.0 0.0
02/05:44am -3.4 -8.7 -3.5 99 -0.1 NNE 15 17 8 9 1015.0 1014.9 0.0
02/05:30am -4.2 -9.2 -4.6 97 0.0 NE 13 15 7 8 1014.9 1014.8 0.0
02/05:00am -4.1 -9.2 -4.8 95 0.1 NE 13 15 7 8 1015.0 1014.9 0.0
02/04:30am -3.0 -8.3 -3.3 98 0.0 NE 15 17 8 9 1014.9 1014.8 0.0
02/04:00am -3.1 -8.4 -3.4 98 0.0 NNE 15 17 8 9 1014.8 1014.7 0.0
02/03:30am -3.4 -8.7 -3.9 96 0.0 NE 15 15 8 8 1014.8 1014.7 0.0
02/03:00am -4.2 -9.3 -5.4 91 0.2 NNE 13 15 7 8 1014.9 1014.8 0.0
02/02:30am -2.5 -6.7 -3.8 91 0.3 N 9 11 5 6 1015.0 1014.9 0.0
02/02:00am -2.9 -6.6 -4.3 90 0.3 N 6 7 3 4 1015.5 1015.4 0.0
02/01:30am -1.9 -6.4 -3.0 92 0.3 N 11 11 6 6 1015.6 1015.5 0.0
02/01:00am -2.6 -6.8 -4.2 89 0.4 N 9 11 5 6 1015.8 1015.7 0.0
02/12:30am -2.9 -6.8 -4.8 87 0.5 N 7 9 4 5 1015.5 1015.4 0.0
02/12:00am -2.0 -4.5 -3.9 87 0.6 CALM 0 0 0 0 1015.6 1015.5 0.0
 
Date/Time
EST
Temp
°C
App
Temp
°C
Dew
Point
Rel
Hum
%
Delta-T
°C
Wind Press
QNH
hPa
Press
MSL
hPa
Rain
since 9 am
mm
Dir
 
Spd
km/h
Gust
km/h
Spd
kts
Gust
kts
01/11:30pm -1.9 -5.7 -3.9 86 0.6 N 7 9 4 5 1015.6 1015.5 0.0
01/11:00pm -1.8 -4.3 -4.1 84 0.7 CALM 0 0 0 0 1015.5 1015.4 0.0
01/10:30pm -1.8 -4.2 -3.5 88 0.5 CALM 0 0 0 0 1015.3 1015.3 0.0
01/10:00pm -1.7 -4.2 -3.7 86 0.6 CALM 0 0 0 0 1015.3 1015.3 0.0
01/09:30pm -1.1 -3.6 -3.6 83 0.8 CALM 0 0 0 0 1015.2 1015.2 0.0
01/09:00pm -0.4 -2.8 -2.9 83 0.9 CALM 0 0 0 0 1014.8 1014.7 0.0
01/08:30pm 0.1 -2.3 -3.4 77 1.2 CALM 0 0 0 0 1014.7 1014.6 0.0
01/08:00pm 1.6 -0.8 -3.1 71 1.8 CALM 0 0 0 0 1014.4 1014.3 0.0
01/07:30pm 3.8 0.1 -2.8 62 2.5 SW 7 13 4 7 1014.2 1014.1 0.0
01/07:00pm 4.7 0.3 -2.4 60 2.7 WSW 11 15 6 8 1013.6 1013.5 0.0
01/06:30pm 5.9 1.5 -2.7 54 3.3 SW 11 13 6 7 1013.6 1013.5 0.0
01/06:00pm 7.4 3.7 -2.6 49 3.9 SW 7 7 4 4 1013.3 1013.1 0.0
01/05:30pm 8.6 3.5 -1.8 48 4.2 S 15 17 8 9 1013.0 1012.9 0.0
01/05:00pm 10.8 4.9 -2.6 39 5.4 S 19 22 10 12 1012.6 1012.5 0.0
01/04:30pm 11.7 5.6 -2.1 38 5.7 S 20 24 11 13 1012.5 1012.4 0.0
01/04:00pm 12.3 5.8 -2.3 36 6.0 S 22 28 12 15 1012.5 1012.4 0.0
01/03:30pm 12.7 6.8 -2.3 35 6.2 SSW 19 24 10 13 1012.6 1012.5 0.0
01/03:00pm 12.8 6.6 -4.8 29 6.9 SSW 19 26 10 14 1012.6 1012.5 0.0
01/02:30pm 12.7 7.1 -3.1 33 6.4 SSW 17 26 9 14 1012.7 1012.6 0.0
01/02:00pm 12.3 6.2 -3.5 33 6.4 SSW 19 30 10 16 1012.8 1012.7 0.0
01/01:30pm 11.8 6.2 -3.1 35 6.0 SSW 17 24 9 13 1012.9 1012.8 0.0
01/01:00pm 11.2 7.1 -0.3 45 4.9 S 11 20 6 11 1013.3 1013.1 0.0
01/12:30pm 10.6 5.7 -0.8 45 4.8 SSW 15 20 8 11 1013.5 1013.4 0.0
01/12:00pm 9.5 5.6 -1.5 46 4.5 S 9 19 5 10 1013.8 1013.7 0.0
01/11:30am 8.7 5.0 -0.3 53 3.8 SW 9 15 5 8 1014.1 1014.0 0.0
01/11:00am 7.9 3.7 -1.1 53 3.7 SSW 11 19 6 10 1014.5 1014.4 0.0
01/10:30am 6.4 2.9 -1.2 58 3.0 SW 7 13 4 7 1014.7 1014.6 0.0
01/10:00am 6.1 2.8 0.4 67 2.4 WSW 7 13 4 7 1014.9 1014.8 0.0
01/09:30am 4.5 0.8 0.1 73 1.8 SSW 9 13 5 7 1015.0 1016.1 0.0
01/09:00am 3.7 -0.3 0.2 78 1.4 SSW 11 15 6 8 1015.1 1016.2 0.0
01/08:30am 3.1 -0.5 0.3 82 1.1 SSW 9 15 5 8 1015.1 1016.2 0.0
01/08:00am 1.7 -0.3 -0.4 86 0.8 CALM 0 0 0 0 1015.1 1016.2 0.0
01/07:30am 0.4 -1.7 -1.0 90 0.5 CALM 0 0 0 0 1015.0 1016.1 0.0
01/07:00am -2.1 -4.5 -3.4 91 0.4 CALM 0 0 0 0 1014.8 1015.9 0.0
01/06:30am -2.7 -5.2 -3.7 93 0.2 CALM 0 0 0 0 1014.6 1015.7 0.0
01/06:00am -2.2 -5.9 -3.3 92 0.3 WSW 7 9 4 5 1014.6 1015.7 0.0
01/05:30am -1.6 -4.4 -2.9 91 0.4 SSE 2 7 1 4 1014.6 1015.7 0.0
01/05:00am 0.1 -4.2 -1.5 89 0.6 W 11 15 6 8 1014.4 1015.5 0.0
01/04:30am 0.7 -4.3 -0.9 89 0.6 WSW 15 20 8 11 1014.4 1015.5 0.0
01/04:00am 1.8 -1.4 0.5 91 0.5 WSW 7 9 4 5 1014.6 1015.7 0.0
01/03:30am 2.0 -1.2 0.7 91 0.5 WSW 7 11 4 6 1014.6 1015.7 0.0

Other Formats:

Comma delimited format used in spreadsheet applications
http://www.bom.gov.au/fwo/IDN60801/IDN60801.94921.axf

JavaScript Object Notation format (JSON) in row-major order
http://www.bom.gov.au/fwo/IDN60801/IDN60801.94921.json